首页
METAR-TAF:

METAR-TAF

机场 :

雷克雅維克, 冰岛

纬度: 64-08N, 经度: 021-54W, 海拔: 54米

当前天气观测

该预报发布于57分钟前的01:00 UTC
风速11节,风向南转南东
温度 9°C
湿度 66%
气压 1018 hPa
能见度10公里或以上
少量云层高于2500英尺
多云层高于6000英尺

METAR: BIRK 310100Z 15011KT 9999 FEW025 BKN060 09/03 Q1018

时间: 01:57 (01:57 UTC)

预报

该预报发布于3小时和5分钟前的22:52 UTC
预报有效从31日的 00点(UTC)到 01日的 00点(UTC)
风速8节,风向东南
能见度10公里或以上
少量云层高于1400英尺, 积雨云.
散云层高于4000英尺
多云层高于5500英尺
短暂存在
从 31日的 00点(UTC)到 01日的 00点(UTC)
多云层高于1400英尺, 积雨云.
阵雨
成为
从 31日的 13点(UTC)到 31日的 15点(UTC)
风速15节,风向西南

TAF: BIRK 302252Z 3100/0100 14008KT 9999 FEW014CB SCT040 BKN055 TX10/3115Z TN06/3103Z TEMPO 3100/0100 SHRA BKN014CB BECMG 3113/3115 22015KT

超过4000个机场的气象观测和天气预报(METAR&TAF报告)。

可查询的气象台以黄色和红色小点在地图上表示。

将鼠标移到小点上方,可查看气象台名称。

然后点击查看天气观测和预报。

如需切换地图:点击带黑十字的绿色按钮放大地图;点击带横线的绿色按钮缩小地图;或者点击绿色箭头查看邻近地区的地图。


METAR-TAF: